sensor_id;sensor_type;location;lat;lon;timestamp;pressure;altitude;pressure_sealevel;temperature;humidity
58761;BME280;44529;47.464;19.014;2023-02-28T00:02:57;101327.41;;;1.44;57.25
58761;BME280;44529;47.464;19.014;2023-02-28T00:05:59;101329.03;;;1.26;57.71
58761;BME280;44529;47.464;19.014;2023-02-28T00:09:02;101333.88;;;1.36;57.57
58761;BME280;44529;47.464;19.014;2023-02-28T00:12:06;101333.16;;;1.41;57.50
58761;BME280;44529;47.464;19.014;2023-02-28T00:15:11;101344.78;;;1.46;56.47
58761;BME280;44529;47.464;19.014;2023-02-28T00:18:14;101345.03;;;1.45;57.01
58761;BME280;44529;47.464;19.014;2023-02-28T00:21:17;101348.41;;;1.52;56.55
58761;BME280;44529;47.464;19.014;2023-02-28T00:24:20;101348.00;;;1.55;57.10
58761;BME280;44529;47.464;19.014;2023-02-28T00:27:23;101345.84;;;1.45;57.83
58761;BME280;44529;47.464;19.014;2023-02-28T00:30:25;101348.56;;;1.39;58.55
58761;BME280;44529;47.464;19.014;2023-02-28T00:33:28;101350.19;;;1.40;56.88
58761;BME280;44529;47.464;19.014;2023-02-28T00:36:31;101348.13;;;1.42;57.38
58761;BME280;44529;47.464;19.014;2023-02-28T00:39:35;101357.03;;;1.35;57.76
58761;BME280;44529;47.464;19.014;2023-02-28T00:42:38;101355.37;;;1.34;56.95
58761;BME280;44529;47.464;19.014;2023-02-28T00:45:40;101360.78;;;1.46;56.91
58761;BME280;44529;47.464;19.014;2023-02-28T00:48:43;101360.88;;;1.40;56.68
58761;BME280;44529;47.464;19.014;2023-02-28T00:51:46;101360.59;;;1.29;57.96
58761;BME280;44529;47.464;19.014;2023-02-28T00:54:49;101364.34;;;1.40;57.67
58761;BME280;44529;47.464;19.014;2023-02-28T00:57:51;101368.63;;;1.41;57.66
58761;BME280;44529;47.464;19.014;2023-02-28T01:00:54;101362.47;;;1.41;57.19
58761;BME280;44529;47.464;19.014;2023-02-28T01:03:57;101354.41;;;1.47;56.90
58761;BME280;44529;47.464;19.014;2023-02-28T01:07:00;101367.22;;;1.57;57.28
58761;BME280;44529;47.464;19.014;2023-02-28T01:10:03;101359.06;;;1.52;57.24
58761;BME280;44529;47.464;19.014;2023-02-28T01:13:06;101359.53;;;1.49;57.96
58761;BME280;44529;47.464;19.014;2023-02-28T01:16:12;101362.31;;;1.54;57.50
58761;BME280;44529;47.464;19.014;2023-02-28T01:19:15;101363.38;;;1.53;57.08
58761;BME280;44529;47.464;19.014;2023-02-28T01:22:17;101361.88;;;1.57;56.51
58761;BME280;44529;47.464;19.014;2023-02-28T01:25:20;101356.56;;;1.57;56.80
58761;BME280;44529;47.464;19.014;2023-02-28T01:28:23;101362.84;;;1.62;56.42
58761;BME280;44529;47.464;19.014;2023-02-28T01:31:25;101367.66;;;1.54;56.75
58761;BME280;44529;47.464;19.014;2023-02-28T01:34:28;101368.03;;;1.57;56.19
58761;BME280;44529;47.464;19.014;2023-02-28T01:37:30;101364.81;;;1.67;55.87
58761;BME280;44529;47.464;19.014;2023-02-28T01:40:33;101364.53;;;1.75;55.97
58761;BME280;44529;47.464;19.014;2023-02-28T01:46:44;101356.72;;;1.62;57.04
58761;BME280;44529;47.464;19.014;2023-02-28T01:49:49;101359.37;;;1.62;56.43
58761;BME280;44529;47.464;19.014;2023-02-28T01:52:56;101351.34;;;1.80;55.59
58761;BME280;44529;47.464;19.014;2023-02-28T01:56:00;101361.53;;;1.83;56.02
58761;BME280;44529;47.464;19.014;2023-02-28T01:59:03;101349.78;;;1.73;55.53
58761;BME280;44529;47.464;19.014;2023-02-28T02:02:06;101350.06;;;1.83;56.29
58761;BME280;44529;47.464;19.014;2023-02-28T02:05:12;101355.13;;;1.73;56.53
58761;BME280;44529;47.464;19.014;2023-02-28T02:08:25;101349.03;;;1.84;57.48
58761;BME280;44529;47.464;19.014;2023-02-28T02:11:29;101350.12;;;1.95;56.15
58761;BME280;44529;47.464;19.014;2023-02-28T02:15:03;101353.94;;;1.87;56.37
58761;BME280;44529;47.464;19.014;2023-02-28T02:18:30;101347.06;;;1.91;57.55
58761;BME280;44529;47.464;19.014;2023-02-28T02:31:56;101349.06;;;1.96;54.08
58761;BME280;44529;47.464;19.014;2023-02-28T02:41:40;101350.50;;;1.80;55.86
58761;BME280;44529;47.464;19.014;2023-02-28T02:45:06;101347.72;;;1.75;55.58
58761;BME280;44529;47.464;19.014;2023-02-28T02:48:12;101351.69;;;1.84;55.83
58761;BME280;44529;47.464;19.014;2023-02-28T02:51:17;101349.25;;;1.82;55.50
58761;BME280;44529;47.464;19.014;2023-02-28T02:54:28;101349.25;;;1.82;55.20
58761;BME280;44529;47.464;19.014;2023-02-28T02:57:46;101350.41;;;1.86;56.50
58761;BME280;44529;47.464;19.014;2023-02-28T03:00:55;101352.69;;;2.01;55.22
58761;BME280;44529;47.464;19.014;2023-02-28T03:04:07;101354.63;;;1.94;54.70
58761;BME280;44529;47.464;19.014;2023-02-28T03:07:10;101351.59;;;1.90;54.46
58761;BME280;44529;47.464;19.014;2023-02-28T03:10:41;101353.69;;;1.88;55.33
58761;BME280;44529;47.464;19.014;2023-02-28T03:17:45;101356.69;;;1.80;55.21
58761;BME280;44529;47.464;19.014;2023-02-28T03:21:14;101363.50;;;1.76;55.17
58761;BME280;44529;47.464;19.014;2023-02-28T03:34:23;101358.50;;;1.50;55.89
58761;BME280;44529;47.464;19.014;2023-02-28T03:37:28;101357.94;;;1.59;55.17
58761;BME280;44529;47.464;19.014;2023-02-28T03:40:33;101353.09;;;1.56;54.98
58761;BME280;44529;47.464;19.014;2023-02-28T03:43:41;101362.78;;;1.51;55.97
58761;BME280;44529;47.464;19.014;2023-02-28T03:47:02;101359.53;;;1.49;56.35
58761;BME280;44529;47.464;19.014;2023-02-28T03:50:55;101364.47;;;1.63;56.09
58761;BME280;44529;47.464;19.014;2023-02-28T03:53:42;101365.13;;;1.59;56.12
58761;BME280;44529;47.464;19.014;2023-02-28T03:56:58;101370.03;;;1.62;56.75
58761;BME280;44529;47.464;19.014;2023-02-28T04:00:09;101368.75;;;1.65;56.78
58761;BME280;44529;47.464;19.014;2023-02-28T04:03:14;101362.25;;;1.60;56.57
58761;BME280;44529;47.464;19.014;2023-02-28T04:06:19;101370.91;;;1.74;56.61
58761;BME280;44529;47.464;19.014;2023-02-28T04:09:22;101360.91;;;1.70;57.07
58761;BME280;44529;47.464;19.014;2023-02-28T04:12:26;101354.22;;;1.49;57.13
58761;BME280;44529;47.464;19.014;2023-02-28T04:15:28;101348.13;;;1.42;57.36
58761;BME280;44529;47.464;19.014;2023-02-28T04:18:31;101358.34;;;1.45;57.46
58761;BME280;44529;47.464;19.014;2023-02-28T04:21:39;101351.97;;;1.46;57.22
58761;BME280;44529;47.464;19.014;2023-02-28T04:24:42;101359.53;;;1.49;57.40
58761;BME280;44529;47.464;19.014;2023-02-28T04:27:45;101351.66;;;1.54;57.62
58761;BME280;44529;47.464;19.014;2023-02-28T04:30:47;101355.09;;;1.43;58.01
58761;BME280;44529;47.464;19.014;2023-02-28T04:33:55;101357.31;;;1.46;57.85
58761;BME280;44529;47.464;19.014;2023-02-28T04:36:58;101355.37;;;1.34;58.63
58761;BME280;44529;47.464;19.014;2023-02-28T04:40:18;101358.34;;;1.45;58.83
58761;BME280;44529;47.464;19.014;2023-02-28T04:43:20;101358.25;;;1.51;58.40
58761;BME280;44529;47.464;19.014;2023-02-28T04:46:23;101351.97;;;1.46;58.04
58761;BME280;44529;47.464;19.014;2023-02-28T04:49:26;101346.50;;;1.41;57.82
58761;BME280;44529;47.464;19.014;2023-02-28T04:52:28;101357.06;;;1.47;58.04
58761;BME280;44529;47.464;19.014;2023-02-28T04:55:31;101354.06;;;1.44;58.33
58761;BME280;44529;47.464;19.014;2023-02-28T04:58:34;101353.75;;;1.52;58.27
58761;BME280;44529;47.464;19.014;2023-02-28T05:01:36;101348.41;;;1.52;57.70
58761;BME280;44529;47.464;19.014;2023-02-28T05:04:39;101348.87;;;1.49;57.87
58761;BME280;44529;47.464;19.014;2023-02-28T05:07:41;101352.13;;;1.51;59.55
58761;BME280;44529;47.464;19.014;2023-02-28T05:10:43;101349.00;;;1.54;58.22
58761;BME280;44529;47.464;19.014;2023-02-28T05:13:47;101349.97;;;1.59;58.60
58761;BME280;44529;47.464;19.014;2023-02-28T05:16:49;101351.66;;;1.54;58.27
58761;BME280;44529;47.464;19.014;2023-02-28T05:19:51;101350.50;;;1.50;58.57
58761;BME280;44529;47.464;19.014;2023-02-28T05:22:56;101352.78;;;1.46;59.05
58761;BME280;44529;47.464;19.014;2023-02-28T05:26:00;101350.59;;;1.43;58.86
58761;BME280;44529;47.464;19.014;2023-02-28T05:29:02;101364.34;;;1.40;58.42
58761;BME280;44529;47.464;19.014;2023-02-28T05:32:05;101360.78;;;1.46;57.76
58761;BME280;44529;47.464;19.014;2023-02-28T05:35:07;101363.13;;;1.54;57.79
58761;BME280;44529;47.464;19.014;2023-02-28T05:38:10;101370.94;;;1.56;58.62
58761;BME280;44529;47.464;19.014;2023-02-28T05:41:13;101372.25;;;1.47;57.87
58761;BME280;44529;47.464;19.014;2023-02-28T05:44:16;101367.97;;;1.46;58.97
58761;BME280;44529;47.464;19.014;2023-02-28T05:47:18;101371.34;;;1.53;59.14
58761;BME280;44529;47.464;19.014;2023-02-28T05:50:21;101371.75;;;1.56;60.00
58761;BME280;44529;47.464;19.014;2023-02-28T05:53:24;101372.09;;;1.60;59.14
58761;BME280;44529;47.464;19.014;2023-02-28T05:56:26;101379.28;;;1.59;58.55
58761;BME280;44529;47.464;19.014;2023-02-28T05:59:29;101386.91;;;1.56;58.98
58761;BME280;44529;47.464;19.014;2023-02-28T06:02:31;101387.50;;;1.58;58.13
58761;BME280;44529;47.464;19.014;2023-02-28T06:05:34;101382.75;;;1.60;57.71
58761;BME280;44529;47.464;19.014;2023-02-28T06:08:36;101379.97;;;1.55;59.08
58761;BME280;44529;47.464;19.014;2023-02-28T06:11:39;101379.81;;;1.68;59.21
58761;BME280;44529;47.464;19.014;2023-02-28T06:14:41;101385.41;;;1.78;58.48
58761;BME280;44529;47.464;19.014;2023-02-28T06:17:44;101388.06;;;1.78;58.43
58761;BME280;44529;47.464;19.014;2023-02-28T06:20:55;101388.69;;;1.80;59.54
58761;BME280;44529;47.464;19.014;2023-02-28T06:23:58;101384.06;;;1.87;58.43
58761;BME280;44529;47.464;19.014;2023-02-28T06:27:01;101393.37;;;1.97;57.16
58761;BME280;44529;47.464;19.014;2023-02-28T06:30:07;101389.59;;;1.86;58.11
58761;BME280;44529;47.464;19.014;2023-02-28T06:33:10;101401.53;;;1.83;57.50
58761;BME280;44529;47.464;19.014;2023-02-28T06:36:13;101396.34;;;1.88;57.64
58761;BME280;44529;47.464;19.014;2023-02-28T06:39:16;101398.22;;;1.88;57.10
58761;BME280;44529;47.464;19.014;2023-02-28T06:42:32;101400.50;;;1.84;57.12
58761;BME280;44529;47.464;19.014;2023-02-28T06:45:35;101409.75;;;2.00;56.63
58761;BME280;44529;47.464;19.014;2023-02-28T06:48:39;101412.28;;;1.95;56.84
58761;BME280;44529;47.464;19.014;2023-02-28T06:51:43;101412.50;;;1.94;57.22
58761;BME280;44529;47.464;19.014;2023-02-28T06:54:51;101410.56;;;2.01;57.10
58761;BME280;44529;47.464;19.014;2023-02-28T06:58:12;101413.31;;;1.94;55.88
58761;BME280;44529;47.464;19.014;2023-02-28T07:01:32;101412.09;;;2.08;55.60
58761;BME280;44529;47.464;19.014;2023-02-28T07:04:36;101402.00;;;2.10;55.99
58761;BME280;44529;47.464;19.014;2023-02-28T07:07:39;101409.66;;;2.07;54.82
58761;BME280;44529;47.464;19.014;2023-02-28T07:10:45;101417.91;;;2.17;55.34
58761;BME280;44529;47.464;19.014;2023-02-28T07:13:49;101426.06;;;2.22;55.78
58761;BME280;44529;47.464;19.014;2023-02-28T07:16:53;101423.19;;;2.35;54.56
58761;BME280;44529;47.464;19.014;2023-02-28T07:19:55;101432.97;;;2.41;54.81
58761;BME280;44529;47.464;19.014;2023-02-28T07:22:58;101434.34;;;2.44;53.43
58761;BME280;44529;47.464;19.014;2023-02-28T07:26:06;101435.16;;;2.44;54.70
58761;BME280;44529;47.464;19.014;2023-02-28T07:29:29;101431.25;;;2.47;53.20
58761;BME280;44529;47.464;19.014;2023-02-28T07:32:42;101433.09;;;2.47;53.61
58761;BME280;44529;47.464;19.014;2023-02-28T07:35:46;101434.72;;;2.48;52.62
58761;BME280;44529;47.464;19.014;2023-02-28T07:38:50;101437.84;;;2.44;53.00
58761;BME280;44529;47.464;19.014;2023-02-28T07:41:55;101439.84;;;2.49;53.46
58761;BME280;44529;47.464;19.014;2023-02-28T07:44:59;101446.22;;;2.48;53.68
58761;BME280;44529;47.464;19.014;2023-02-28T07:48:02;101445.06;;;2.56;53.32
58761;BME280;44529;47.464;19.014;2023-02-28T07:51:05;101443.44;;;2.55;53.48
58761;BME280;44529;47.464;19.014;2023-02-28T07:54:07;101438.56;;;2.52;53.12
58761;BME280;44529;47.464;19.014;2023-02-28T07:57:11;101445.91;;;2.68;52.98
58761;BME280;44529;47.464;19.014;2023-02-28T08:00:14;101446.84;;;2.74;51.95
58761;BME280;44529;47.464;19.014;2023-02-28T08:03:24;101446.19;;;2.78;52.53
58761;BME280;44529;47.464;19.014;2023-02-28T08:06:28;101447.91;;;2.96;51.55
58761;BME280;44529;47.464;19.014;2023-02-28T08:09:31;101442.94;;;2.99;51.11
58761;BME280;44529;47.464;19.014;2023-02-28T08:12:33;101446.19;;;3.13;51.40
58761;BME280;44529;47.464;19.014;2023-02-28T08:15:36;101436.91;;;3.16;49.29
58761;BME280;44529;47.464;19.014;2023-02-28T08:18:38;101444.78;;;3.34;50.25
58761;BME280;44529;47.464;19.014;2023-02-28T08:21:41;101440.59;;;3.50;49.70
58761;BME280;44529;47.464;19.014;2023-02-28T08:24:43;101442.91;;;3.58;48.39
58761;BME280;44529;47.464;19.014;2023-02-28T08:27:46;101439.28;;;3.76;48.38
58761;BME280;44529;47.464;19.014;2023-02-28T08:30:48;101442.72;;;3.88;49.30
58761;BME280;44529;47.464;19.014;2023-02-28T08:33:51;101434.03;;;4.10;48.67
58761;BME280;44529;47.464;19.014;2023-02-28T08:36:55;101441.50;;;4.07;49.06
58761;BME280;44529;47.464;19.014;2023-02-28T08:39:58;101438.09;;;4.41;48.38
58761;BME280;44529;47.464;19.014;2023-02-28T08:43:01;101435.50;;;4.62;49.18
58761;BME280;44529;47.464;19.014;2023-02-28T08:46:04;101437.31;;;4.74;48.06
58761;BME280;44529;47.464;19.014;2023-02-28T08:49:06;101441.13;;;5.11;47.05
58761;BME280;44529;47.464;19.014;2023-02-28T08:52:09;101437.41;;;5.34;46.72
58761;BME280;44529;47.464;19.014;2023-02-28T08:55:12;101439.09;;;5.19;45.98
58761;BME280;44529;47.464;19.014;2023-02-28T08:58:14;101435.09;;;5.21;46.18
58761;BME280;44529;47.464;19.014;2023-02-28T09:01:29;101433.37;;;5.15;47.17
58761;BME280;44529;47.464;19.014;2023-02-28T09:04:34;101433.16;;;5.16;47.20
58761;BME280;44529;47.464;19.014;2023-02-28T09:07:36;101436.31;;;5.13;46.81
58761;BME280;44529;47.464;19.014;2023-02-28T09:10:38;101434.09;;;5.27;46.78
58761;BME280;44529;47.464;19.014;2023-02-28T09:13:41;101435.41;;;5.25;46.47
58761;BME280;44529;47.464;19.014;2023-02-28T09:16:44;101428.16;;;5.42;45.90
58761;BME280;44529;47.464;19.014;2023-02-28T09:19:49;101434.88;;;5.44;45.92
58761;BME280;44529;47.464;19.014;2023-02-28T09:22:52;101437.53;;;5.23;45.81
58761;BME280;44529;47.464;19.014;2023-02-28T09:25:55;101437.28;;;5.24;46.48
58761;BME280;44529;47.464;19.014;2023-02-28T09:28:57;101433.81;;;5.24;46.91
58761;BME280;44529;47.464;19.014;2023-02-28T09:32:01;101436.97;;;5.21;47.18
58761;BME280;44529;47.464;19.014;2023-02-28T09:35:05;101437.88;;;5.09;47.08
58761;BME280;44529;47.464;19.014;2023-02-28T09:38:07;101444.59;;;5.29;46.41
58761;BME280;44529;47.464;19.014;2023-02-28T09:41:14;101447.63;;;5.15;46.90
58761;BME280;44529;47.464;19.014;2023-02-28T09:47:45;101439.59;;;5.15;46.90
58761;BME280;44529;47.464;19.014;2023-02-28T09:51:02;101435.22;;;5.09;46.92
58761;BME280;44529;47.464;19.014;2023-02-28T09:54:06;101434.44;;;5.31;47.17
58761;BME280;44529;47.464;19.014;2023-02-28T09:57:32;101439.97;;;5.24;46.60
58761;BME280;44529;47.464;19.014;2023-02-28T10:00:39;101448.09;;;5.29;47.38
58761;BME280;44529;47.464;19.014;2023-02-28T10:03:47;101445.41;;;5.29;46.77
58761;BME280;44529;47.464;19.014;2023-02-28T10:06:53;101432.34;;;5.16;46.68
58761;BME280;44529;47.464;19.014;2023-02-28T10:09:58;101434.75;;;5.34;47.03
58761;BME280;44529;47.464;19.014;2023-02-28T10:13:11;101429.97;;;5.58;46.76
58761;BME280;44529;47.464;19.014;2023-02-28T10:16:29;101425.62;;;5.74;46.71
58761;BME280;44529;47.464;19.014;2023-02-28T10:19:42;101422.22;;;5.84;45.28
58761;BME280;44529;47.464;19.014;2023-02-28T10:26:26;101420.25;;;5.96;45.79
58761;BME280;44529;47.464;19.014;2023-02-28T10:29:32;101418.00;;;6.10;46.28
58761;BME280;44529;47.464;19.014;2023-02-28T10:32:36;101426.84;;;6.10;45.14
58761;BME280;44529;47.464;19.014;2023-02-28T10:35:41;101419.87;;;6.09;45.40
58761;BME280;44529;47.464;19.014;2023-02-28T10:38:45;101414.22;;;6.11;45.53
58761;BME280;44529;47.464;19.014;2023-02-28T10:41:48;101416.16;;;6.15;45.78
58761;BME280;44529;47.464;19.014;2023-02-28T10:45:11;101408.84;;;6.06;46.34
58761;BME280;44529;47.464;19.014;2023-02-28T10:51:18;101392.97;;;6.04;45.51
58761;BME280;44529;47.464;19.014;2023-02-28T10:54:34;101399.94;;;6.05;44.87
58761;BME280;44529;47.464;19.014;2023-02-28T10:57:40;101399.94;;;5.83;45.39
58761;BME280;44529;47.464;19.014;2023-02-28T11:00:43;101399.31;;;5.93;46.18
58761;BME280;44529;47.464;19.014;2023-02-28T11:03:45;101394.78;;;5.98;46.25
58761;BME280;44529;47.464;19.014;2023-02-28T11:07:00;101390.47;;;5.97;45.97
58761;BME280;44529;47.464;19.014;2023-02-28T11:10:03;101377.81;;;5.93;46.24
58761;BME280;44529;47.464;19.014;2023-02-28T11:13:06;101391.66;;;6.07;46.34
58761;BME280;44529;47.464;19.014;2023-02-28T11:16:11;101397.25;;;6.05;45.82
58761;BME280;44529;47.464;19.014;2023-02-28T11:19:28;101397.62;;;6.14;46.44
58761;BME280;44529;47.464;19.014;2023-02-28T11:22:38;101393.22;;;6.30;45.80
58761;BME280;44529;47.464;19.014;2023-02-28T11:25:50;101388.25;;;6.16;46.16
58761;BME280;44529;47.464;19.014;2023-02-28T11:29:37;101385.09;;;6.24;46.29
58761;BME280;44529;47.464;19.014;2023-02-28T11:32:32;101381.66;;;6.29;46.19
58761;BME280;44529;47.464;19.014;2023-02-28T11:35:38;101377.19;;;6.40;46.75
58761;BME280;44529;47.464;19.014;2023-02-28T11:38:41;101374.94;;;6.27;46.32
58761;BME280;44529;47.464;19.014;2023-02-28T11:41:57;101379.91;;;6.13;46.17
58761;BME280;44529;47.464;19.014;2023-02-28T11:48:31;101379.50;;;5.99;46.31
58761;BME280;44529;47.464;19.014;2023-02-28T11:51:35;101376.91;;;6.09;46.73
58761;BME280;44529;47.464;19.014;2023-02-28T12:08:03;101355.19;;;6.43;47.08
58761;BME280;44529;47.464;19.014;2023-02-28T12:11:16;101346.72;;;6.61;46.12
58761;BME280;44529;47.464;19.014;2023-02-28T12:17:38;101351.63;;;6.69;44.91
58761;BME280;44529;47.464;19.014;2023-02-28T12:20:46;101355.16;;;6.75;45.76
58761;BME280;44529;47.464;19.014;2023-02-28T12:27:03;101344.94;;;6.72;46.30
58761;BME280;44529;47.464;19.014;2023-02-28T12:30:17;101331.59;;;6.87;46.25
58761;BME280;44529;47.464;19.014;2023-02-28T12:33:24;101331.94;;;7.01;46.37
58761;BME280;44529;47.464;19.014;2023-02-28T12:36:33;101333.56;;;7.07;46.22
58761;BME280;44529;47.464;19.014;2023-02-28T12:39:44;101324.44;;;7.08;45.98
58761;BME280;44529;47.464;19.014;2023-02-28T12:42:58;101328.28;;;7.22;46.01
58761;BME280;44529;47.464;19.014;2023-02-28T12:46:12;101321.81;;;7.18;45.36
58761;BME280;44529;47.464;19.014;2023-02-28T12:49:21;101322.63;;;7.19;45.80
58761;BME280;44529;47.464;19.014;2023-02-28T12:56:26;101318.13;;;7.35;46.21
58761;BME280;44529;47.464;19.014;2023-02-28T12:59:56;101305.47;;;7.40;46.23
58761;BME280;44529;47.464;19.014;2023-02-28T13:10:07;101305.84;;;7.74;45.36
58761;BME280;44529;47.464;19.014;2023-02-28T13:13:18;101305.25;;;7.57;46.67
58761;BME280;44529;47.464;19.014;2023-02-28T13:16:22;101305.22;;;7.42;46.10
58761;BME280;44529;47.464;19.014;2023-02-28T13:19:33;101302.03;;;7.50;45.27
58761;BME280;44529;47.464;19.014;2023-02-28T13:22:42;101295.53;;;7.41;45.47
58761;BME280;44529;47.464;19.014;2023-02-28T13:38:17;101290.22;;;7.71;45.77
58761;BME280;44529;47.464;19.014;2023-02-28T13:48:24;101276.25;;;7.90;46.38
58761;BME280;44529;47.464;19.014;2023-02-28T13:51:44;101268.69;;;7.92;46.08
58761;BME280;44529;47.464;19.014;2023-02-28T13:55:13;101267.34;;;7.74;45.87
58761;BME280;44529;47.464;19.014;2023-02-28T13:58:27;101269.72;;;7.50;46.65
58761;BME280;44529;47.464;19.014;2023-02-28T14:01:56;101264.03;;;7.31;46.95
58761;BME280;44529;47.464;19.014;2023-02-28T14:08:21;101258.13;;;7.44;47.15
58761;BME280;44529;47.464;19.014;2023-02-28T14:17:37;101259.12;;;7.18;48.51
58761;BME280;44529;47.464;19.014;2023-02-28T14:20:42;101262.00;;;6.96;48.08
58761;BME280;44529;47.464;19.014;2023-02-28T14:37:20;101241.56;;;6.90;49.42
58761;BME280;44529;47.464;19.014;2023-02-28T14:40:34;101249.38;;;7.01;50.09
58761;BME280;44529;47.464;19.014;2023-02-28T14:43:49;101244.34;;;7.15;48.87
58761;BME280;44529;47.464;19.014;2023-02-28T14:46:54;101243.75;;;7.03;48.47
58761;BME280;44529;47.464;19.014;2023-02-28T14:50:29;101249.16;;;7.13;48.36
58761;BME280;44529;47.464;19.014;2023-02-28T14:53:35;101244.56;;;7.03;48.98
58761;BME280;44529;47.464;19.014;2023-02-28T14:56:39;101248.00;;;6.94;49.61
58761;BME280;44529;47.464;19.014;2023-02-28T14:59:41;101251.75;;;6.93;49.62
58761;BME280;44529;47.464;19.014;2023-02-28T15:02:44;101251.00;;;7.07;49.36
58761;BME280;44529;47.464;19.014;2023-02-28T15:05:58;101246.44;;;7.03;48.94
58761;BME280;44529;47.464;19.014;2023-02-28T15:09:15;101253.06;;;6.80;49.28
58761;BME280;44529;47.464;19.014;2023-02-28T15:12:17;101260.34;;;6.85;50.18
58761;BME280;44529;47.464;19.014;2023-02-28T15:15:21;101262.19;;;6.79;50.38
58761;BME280;44529;47.464;19.014;2023-02-28T15:18:49;101254.88;;;6.64;50.50
58761;BME280;44529;47.464;19.014;2023-02-28T15:22:00;101255.66;;;6.65;50.26
58761;BME280;44529;47.464;19.014;2023-02-28T15:25:04;101253.75;;;6.60;50.69
58761;BME280;44529;47.464;19.014;2023-02-28T15:28:18;101261.28;;;6.63;51.55
58761;BME280;44529;47.464;19.014;2023-02-28T15:31:34;101252.50;;;6.78;50.18
58761;BME280;44529;47.464;19.014;2023-02-28T15:34:58;101253.06;;;6.80;50.01
58761;BME280;44529;47.464;19.014;2023-02-28T15:38:03;101251.94;;;6.76;50.52
58761;BME280;44529;47.464;19.014;2023-02-28T15:41:35;101251.41;;;6.74;50.39
58761;BME280;44529;47.464;19.014;2023-02-28T15:44:39;101247.37;;;6.71;50.11
58761;BME280;44529;47.464;19.014;2023-02-28T15:47:45;101250.00;;;6.61;50.81
58761;BME280;44529;47.464;19.014;2023-02-28T15:50:54;101249.72;;;6.63;51.25
58761;BME280;44529;47.464;19.014;2023-02-28T15:54:10;101243.00;;;6.60;51.44
58761;BME280;44529;47.464;19.014;2023-02-28T15:57:24;101237.31;;;6.57;52.09
58761;BME280;44529;47.464;19.014;2023-02-28T16:00:30;101234.75;;;6.30;53.15
58761;BME280;44529;47.464;19.014;2023-02-28T16:03:43;101242.47;;;6.21;53.52
58761;BME280;44529;47.464;19.014;2023-02-28T16:10:03;101245.22;;;5.94;54.06
58761;BME280;44529;47.464;19.014;2023-02-28T16:13:06;101248.31;;;5.86;54.49
58761;BME280;44529;47.464;19.014;2023-02-28T16:16:15;101254.53;;;5.86;55.36
58761;BME280;44529;47.464;19.014;2023-02-28T16:19:18;101259.47;;;5.72;55.01
58761;BME280;44529;47.464;19.014;2023-02-28T16:22:21;101262.12;;;5.67;55.21
58761;BME280;44529;47.464;19.014;2023-02-28T16:25:29;101263.44;;;5.65;55.64
58761;BME280;44529;47.464;19.014;2023-02-28T16:28:37;101260.59;;;5.50;55.69
58761;BME280;44529;47.464;19.014;2023-02-28T16:31:40;101260.28;;;5.46;56.47
58761;BME280;44529;47.464;19.014;2023-02-28T16:34:43;101265.56;;;5.36;56.85
58761;BME280;44529;47.464;19.014;2023-02-28T16:37:46;101266.09;;;5.38;56.39
58761;BME280;44529;47.464;19.014;2023-02-28T16:40:50;101252.44;;;5.39;57.32
58761;BME280;44529;47.464;19.014;2023-02-28T16:43:55;101269.84;;;5.37;57.28
58761;BME280;44529;47.464;19.014;2023-02-28T16:47:03;101269.91;;;5.42;57.26
58761;BME280;44529;47.464;19.014;2023-02-28T16:50:18;101274.28;;;5.48;57.33
58761;BME280;44529;47.464;19.014;2023-02-28T16:53:21;101280.13;;;5.45;57.28
58761;BME280;44529;47.464;19.014;2023-02-28T16:56:24;101288.19;;;5.45;57.50
58761;BME280;44529;47.464;19.014;2023-02-28T16:59:27;101285.41;;;5.35;58.05
58761;BME280;44529;47.464;19.014;2023-02-28T17:02:30;101286.69;;;5.32;58.50
58761;BME280;44529;47.464;19.014;2023-02-28T17:05:37;101290.75;;;5.35;58.21
58761;BME280;44529;47.464;19.014;2023-02-28T17:08:40;101288.72;;;5.47;57.85
58761;BME280;44529;47.464;19.014;2023-02-28T17:11:43;101291.66;;;5.46;57.83
58761;BME280;44529;47.464;19.014;2023-02-28T17:14:45;101294.94;;;5.48;58.04
58761;BME280;44529;47.464;19.014;2023-02-28T17:17:48;101300.72;;;5.39;58.50
58761;BME280;44529;47.464;19.014;2023-02-28T17:20:51;101298.09;;;5.44;58.82
58761;BME280;44529;47.464;19.014;2023-02-28T17:23:53;101300.53;;;5.46;58.96
58761;BME280;44529;47.464;19.014;2023-02-28T17:26:55;101295.06;;;5.36;59.23
58761;BME280;44529;47.464;19.014;2023-02-28T17:29:58;101298.34;;;5.43;60.02
58761;BME280;44529;47.464;19.014;2023-02-28T17:33:01;101292.47;;;5.46;59.52
58761;BME280;44529;47.464;19.014;2023-02-28T17:36:04;101295.41;;;5.44;60.33
58761;BME280;44529;47.464;19.014;2023-02-28T17:39:09;101298.09;;;5.44;59.53
58761;BME280;44529;47.464;19.014;2023-02-28T17:42:13;101295.75;;;5.48;59.51
58761;BME280;44529;47.464;19.014;2023-02-28T17:45:15;101298.72;;;5.52;59.36
58761;BME280;44529;47.464;19.014;2023-02-28T17:48:18;101297.63;;;5.48;60.31
58761;BME280;44529;47.464;19.014;2023-02-28T17:51:22;101300.59;;;5.51;60.21
58761;BME280;44529;47.464;19.014;2023-02-28T17:54:25;101300.97;;;5.38;60.46
58761;BME280;44529;47.464;19.014;2023-02-28T17:57:27;101304.59;;;5.27;61.15
58761;BME280;44529;47.464;19.014;2023-02-28T18:00:30;101305.97;;;5.29;60.29
58761;BME280;44529;47.464;19.014;2023-02-28T18:03:34;101306.84;;;5.35;60.24
58761;BME280;44529;47.464;19.014;2023-02-28T18:06:43;101312.22;;;5.35;60.48
58761;BME280;44529;47.464;19.014;2023-02-28T18:09:49;101312.31;;;5.45;61.24
58761;BME280;44529;47.464;19.014;2023-02-28T18:12:51;101311.75;;;5.43;61.28
58761;BME280;44529;47.464;19.014;2023-02-28T18:15:54;101318.41;;;5.40;61.27
58761;BME280;44529;47.464;19.014;2023-02-28T18:18:56;101317.88;;;5.38;61.58
58761;BME280;44529;47.464;19.014;2023-02-28T18:21:59;101316.88;;;5.44;60.86